Flight Track Log - Related Links

Times and Time Zones

All times are in EDT time to prevent confusion due to time zone crossing. See the N777NC flight status page for this flight to view local times or setup timezone preferences in your user account.

Time Position Orientation Groundspeed Altitude Reporting Facility
EDT Latitude Longitude Course Direction KTS MPH feet Rate Location/Type
Thu 04:53:45 PM 33.6536 -84.4856 348° North 442 509 2,600  Level Atlanta Center
Thu 04:54:45 PM 33.6764 -84.5581 291° West 327 376 4,200 2,050 Climbing Atlanta Center
Thu 04:55:45 PM 33.7303 -84.5908 333° Northwest 247 284 6,700 2,400 Climbing Atlanta Center
Thu 04:56:00 PM 34.0375 -84.5225 349° North  Level FlightAware Approximate
Thu 04:56:45 PM 33.8033 -84.6039 352° North 268 308 9,000  Level Atlanta Center
Thu 04:57:00 PM 34.1322 -84.5473 347° North  Level FlightAware Approximate
Thu 04:57:45 PM 33.8806 -84.6142 354° North 288 331 10,800  Level Atlanta Center
Thu 04:58:00 PM 34.2317 -84.5749 348° North  Level FlightAware Approximate
Thu 04:58:45 PM 33.9764 -84.6300 352° North 299 344 11,700  Level Atlanta Center
Thu 04:59:00 PM 34.3316 -84.6006 348° North  Level FlightAware Approximate
Thu 04:59:45 PM 34.0683 -84.6481 351° North 324 373 13,600  Level Atlanta Center
Thu 05:00:45 PM 34.1661 -84.6764 347° North 346 398 15,400 1,950 Climbing Atlanta Center
Thu 05:01:45 PM 34.2578 -84.7175 340° North 353 406 17,500 1,650 Climbing Atlanta Center
Thu 05:02:45 PM 34.3536 -84.7658 337° Northwest 358 412 18,700 1,400 Climbing Atlanta Center
Thu 05:03:45 PM 34.4533 -84.8172 337° Northwest 381 438 20,300 1,450 Climbing Atlanta Center
Thu 05:04:45 PM 34.5575 -84.8533 344° North 381 438 21,600 1,200 Climbing Atlanta Center
Thu 05:05:45 PM 34.6511 -84.8922 341° North 393 452 22,700 1,100 Climbing Atlanta Center
Thu 05:06:45 PM 34.7594 -84.9186 349° North 393 452 23,800 1,350 Climbing Atlanta Center
Thu 05:07:45 PM 34.8722 -84.9275 356° North 399 459 25,400 1,250 Climbing Atlanta Center
Thu 05:08:45 PM 34.9850 -84.9083 North 399 459 26,300 800 Climbing Atlanta Center
Thu 05:09:45 PM 35.0997 -84.8917 North 406 467 27,000 350 Climbing Atlanta Center
Thu 05:10:45 PM 35.2125 -84.8750 North 406 467 27,000  Level Atlanta Center
Thu 05:11:45 PM 35.3317 -84.8711 North 406 467 27,000 300 Level Atlanta Center
Thu 05:12:45 PM 35.4442 -84.8775 357° North 406 467 27,600 500 Climbing Atlanta Center
Thu 05:13:45 PM 35.5589 -84.8939 353° North 406 467 28,000 200 Climbing Atlanta Center
Thu 05:14:45 PM 35.6756 -84.9028 356° North 406 467 28,000  Level Atlanta Center
Thu 05:15:45 PM 35.8028 -84.9194 354° North 411 473 28,000  Level Atlanta Center
Thu 05:16:33 PM 35.8994 -84.9658 339° North 443 510 28,000  Level Indianapolis Center
Thu 05:17:36 PM 36.0139 -85.0158 341° North 441 507 28,000  Level Indianapolis Center
Thu 05:18:38 PM 36.1281 -85.0575 344° North 429 494 28,000  Level Indianapolis Center
Thu 05:19:40 PM 36.2431 -85.1058 341° North 432 497 28,000 -484 Level Indianapolis Center
Thu 05:20:42 PM 36.3789 -85.1725 338° Northwest 437 503 27,000 -1,645 Descending Indianapolis Center
Thu 05:21:44 PM 36.4917 -85.2125 344° North 424 488 24,600 -1,452 Descending Indianapolis Center
Thu 05:22:46 PM 36.6025 -85.2414 348° North 408 470 24,000 -677 Descending Indianapolis Center
Thu 05:23:48 PM 36.7053 -85.2914 339° North 403 464 23,200 -1,694 Descending Indianapolis Center
Thu 05:24:50 PM 36.8019 -85.3642 329° Northwest 406 467 20,500 -2,565 Descending Indianapolis Center
Thu 05:25:52 PM 36.8986 -85.4139 338° Northwest 380 437 17,900 -2,710 Descending Indianapolis Center
Thu 05:26:54 PM 37.0136 -85.4633 341° North 365 420 14,900 -2,226 Descending Indianapolis Center
Thu 05:27:56 PM 37.1019 -85.4997 342° North 356 410 13,300 -1,694 Descending Indianapolis Center
Thu 05:28:58 PM 37.2014 -85.5386 343° North 347 399 11,400 -1,403 Descending Indianapolis Center
Thu 05:30:00 PM 37.2939 -85.5667 346° North 339 390 10,400 -677 Descending Indianapolis Center
Thu 05:31:02 PM 37.3858 -85.5808 353° North 334 384 10,000 -194 Descending Indianapolis Center
Thu 05:32:04 PM 37.4744 -85.5917 354° North 321 369 10,000  Level Indianapolis Center
Thu 05:33:06 PM 37.5606 -85.6278 342° North 326 375 10,000 -290 Level Indianapolis Center
Thu 05:34:08 PM 37.6408 -85.6250 North 283 326 9,400 -1,258 Descending Indianapolis Center
Thu 05:35:10 PM 37.7267 -85.6214 North 259 298 7,400 -1,742 Descending Indianapolis Center
Thu 05:36:12 PM 37.7986 -85.6233 359° North 257 296 5,800 -1,536 Descending Indianapolis Center
Thu 05:37:15 PM 37.8689 -85.6217 North 253 291 4,200 -1,248 Descending Indianapolis Center
Thu 05:38:17 PM 37.9350 -85.6475 343° North 255 293 3,200 -581 Descending Indianapolis Center
Thu 05:39:19 PM 38.0008 -85.6664 347° North 249 287 3,000 -194 Descending Indianapolis Center

Login

Don't have an account? Register now (free) for customized features, flight alerts, and more!